Time;durP1;ratioP1;P1;durP2;ratioP2;P2;SDS_P1;SDS_P2;PMS_P1;PMS_P2;Temp;Humidity;BMP_temperature;BMP_pressure;BME280_temperature;BME280_humidity;BME280_pressure;Samples;Min_cycle;Max_cycle;Signal;HPM_P1;HPM_P2
2022/08/18 00:01:16;;;;;;;52.58;36.30;;;;;;;20.69;75.43;99554.28;5052026;28;20096;-83
2022/08/18 00:03:45;;;;;;;49.08;35.53;;;;;;;20.57;75.51;99555.88;5052783;28;20041;-83
2022/08/18 00:06:11;;;;;;;46.85;33.75;;;;;;;20.39;76.04;99558.78;5052641;28;20053;-81
2022/08/18 00:08:37;;;;;;;59.63;39.03;;;;;;;20.30;76.31;99555.25;5033370;28;20128;-80
2022/08/18 00:11:02;;;;;;;58.65;40.20;;;;;;;20.25;76.58;99555.44;5052012;28;20279;-79
2022/08/18 00:13:28;;;;;;;50.65;34.58;;;;;;;20.23;76.57;99549.44;5048081;28;20043;-79
2022/08/18 00:15:53;;;;;;;52.85;38.00;;;;;;;20.17;77.27;99546.06;5039427;28;20476;-82
2022/08/18 00:18:18;;;;;;;56.63;38.17;;;;;;;20.24;77.36;99548.31;5051239;28;20033;-82
2022/08/18 00:20:44;;;;;;;50.50;36.15;;;;;;;20.23;77.62;99554.97;5037349;28;20045;-82
2022/08/18 00:23:09;;;;;;;51.35;35.53;;;;;;;20.23;76.90;99549.44;5032072;28;20043;-82
2022/08/18 00:25:35;;;;;;;49.95;36.35;;;;;;;20.22;77.35;99553.38;5032097;28;20057;-79
2022/08/18 00:28:00;;;;;;;56.38;37.55;;;;;;;20.21;77.37;99554.50;5031385;28;20044;-79
2022/08/18 00:30:25;;;;;;;53.97;38.20;;;;;;;20.24;77.15;99551.88;5048334;28;20053;-78
2022/08/18 00:32:56;;;;;;;56.28;41.47;;;;;;;20.15;77.31;99549.16;5051239;28;20049;-78
2022/08/18 00:35:27;;;;;;;52.70;36.95;;;;;;;20.24;77.32;99551.06;5050999;28;20494;-78
2022/08/18 00:37:54;;;;;;;55.20;37.22;;;;;;;20.16;77.06;99561.03;5033357;28;20441;-78
2022/08/18 00:40:24;;;;;;;53.90;37.45;;;;;;;20.08;77.70;99559.94;5049359;28;20095;-79
2022/08/18 00:42:53;;;;;;;51.88;36.20;;;;;;;20.12;77.17;99557.31;5050302;28;20029;-78
2022/08/18 00:45:24;;;;;;;52.97;37.13;;;;;;;20.02;77.63;99566.78;5034840;28;20041;-80
2022/08/18 00:47:50;;;;;;;58.88;39.05;;;;;;;19.99;77.57;99561.94;5051694;28;20048;-84
2022/08/18 00:50:20;;;;;;;53.92;39.13;;;;;;;19.99;78.12;99559.16;5051097;28;20488;-84
2022/08/18 00:52:55;;;;;;;52.25;36.95;;;;;;;20.00;78.03;99563.53;5051143;28;20498;-79
2022/08/18 00:55:22;;;;;;;52.17;36.38;;;;;;;20.01;78.60;99549.38;5049935;28;20040;-80
2022/08/18 00:57:51;;;;;;;51.83;36.95;;;;;;;20.16;77.90;99556.31;5051826;28;20056;-81
2022/08/18 01:00:17;;;;;;;53.80;34.97;;;;;;;20.14;77.53;99553.06;5050734;28;20049;-83
2022/08/18 01:02:46;;;;;;;58.03;37.75;;;;;;;20.04;77.85;99548.72;5052563;28;20037;-83
2022/08/18 01:05:23;;;;;;;60.50;38.25;;;;;;;19.98;78.05;99544.50;5051236;28;20041;-83
2022/08/18 01:07:49;;;;;;;55.42;37.60;;;;;;;20.01;77.72;99543.03;5051534;28;20041;-83
2022/08/18 01:10:18;;;;;;;49.53;35.60;;;;;;;19.92;77.27;99546.66;5049949;28;20049;-85
2022/08/18 01:12:46;;;;;;;54.35;38.35;;;;;;;19.95;77.88;99540.44;5051899;28;20048;-86
2022/08/18 01:15:13;;;;;;;50.67;34.03;;;;;;;20.09;78.04;99539.44;5049850;28;20408;-86
2022/08/18 01:23:20;;;;;;;52.30;37.15;;;;;;;20.22;77.06;99531.22;5050801;28;20106;-90
2022/08/18 01:25:59;;;;;;;50.17;36.08;;;;;;;20.29;76.74;99529.53;5033260;28;20052;-86
2022/08/18 01:28:26;;;;;;;51.53;36.28;;;;;;;20.27;76.59;99534.59;5029982;28;20037;-85
2022/08/18 01:30:59;;;;;;;49.20;35.25;;;;;;;20.23;76.78;99539.19;5049539;28;20041;-84
2022/08/18 01:33:31;;;;;;;55.20;37.67;;;;;;;20.16;77.00;99536.94;5047482;28;20450;-84
2022/08/18 01:36:02;;;;;;;50.65;36.47;;;;;;;20.11;77.39;99539.91;5050165;28;20037;-84
2022/08/18 01:38:30;;;;;;;53.72;37.47;;;;;;;20.00;77.26;99530.34;5047324;28;20069;-84
2022/08/18 01:40:56;;;;;;;61.13;39.95;;;;;;;20.06;77.19;99534.53;5049465;28;20041;-83
2022/08/18 01:43:22;;;;;;;53.00;36.35;;;;;;;20.02;77.31;99533.56;5049338;28;20120;-83
2022/08/18 01:45:48;;;;;;;56.20;38.83;;;;;;;19.96;77.27;99538.50;5047123;28;20127;-82
2022/08/18 01:48:13;;;;;;;52.72;37.67;;;;;;;19.97;77.15;99528.25;5045519;28;20202;-84
2022/08/18 01:50:40;;;;;;;54.23;39.77;;;;;;;19.89;77.26;99536.25;5052955;28;20127;-79
2022/08/18 01:53:06;;;;;;;59.72;38.38;;;;;;;19.82;77.60;99536.78;5069143;28;20336;-80
2022/08/18 01:55:37;;;;;;;52.05;36.15;;;;;;;19.91;77.30;99536.72;5069441;28;20094;-83
2022/08/18 01:58:03;;;;;;;52.78;35.33;;;;;;;19.90;77.88;99540.66;5052488;28;20059;-83
2022/08/18 02:00:29;;;;;;;57.95;37.35;;;;;;;19.80;77.95;99550.13;5050114;28;20041;-86
2022/08/18 02:02:55;;;;;;;61.10;40.90;;;;;;;19.87;77.72;99544.06;5049960;28;20033;-85
2022/08/18 02:05:30;;;;;;;56.50;38.05;;;;;;;19.80;78.14;99543.78;5050460;28;20079;-81
2022/08/18 02:07:56;;;;;;;58.78;39.00;;;;;;;19.66;78.22;99542.06;5049058;28;20561;-79
2022/08/18 02:10:21;;;;;;;53.88;39.42;;;;;;;19.68;78.27;99545.31;5047722;28;20037;-82
2022/08/18 02:12:47;;;;;;;64.40;41.05;;;;;;;19.71;78.61;99552.94;5048935;28;20044;-81
2022/08/18 02:15:12;;;;;;;53.08;37.00;;;;;;;19.77;78.26;99548.03;5047630;28;20068;-81
2022/08/18 02:17:39;;;;;;;52.65;35.03;;;;;;;19.74;78.78;99554.22;5034373;28;20097;-81
2022/08/18 02:20:07;;;;;;;61.22;40.88;;;;;;;19.85;78.28;99546.38;5047501;28;20041;-81
2022/08/18 02:22:33;;;;;;;55.55;36.47;;;;;;;19.90;78.45;99537.88;5048836;28;20032;-81
2022/08/18 02:24:58;;;;;;;56.88;38.88;;;;;;;19.97;77.84;99536.56;5048785;28;20053;-81
2022/08/18 02:27:26;;;;;;;55.50;39.30;;;;;;;19.91;78.02;99533.16;5031419;28;20068;-81
2022/08/18 02:29:51;;;;;;;65.93;40.20;;;;;;;19.90;77.84;99532.34;5047844;28;20102;-81
2022/08/18 02:32:17;;;;;;;55.20;38.70;;;;;;;19.86;77.31;99531.41;5032280;28;20057;-90
2022/08/18 02:34:42;;;;;;;61.20;40.20;;;;;;;19.81;77.94;99535.16;5032299;28;20037;-90
2022/08/18 02:37:08;;;;;;;57.93;38.70;;;;;;;19.64;78.48;99529.72;5049302;28;20361;-83
2022/08/18 02:39:36;;;;;;;51.70;37.05;;;;;;;19.67;78.15;99529.84;5048910;28;20285;-83
2022/08/18 02:42:06;;;;;;;60.38;41.08;;;;;;;19.69;78.09;99541.41;5049771;28;20596;-85
2022/08/18 02:44:31;;;;;;;58.30;39.78;;;;;;;19.58;78.41;99537.38;5049770;28;20090;-84
2022/08/18 02:46:57;;;;;;;55.45;37.90;;;;;;;19.69;78.59;99541.41;5031481;28;20072;-81
2022/08/18 02:49:23;;;;;;;52.90;36.38;;;;;;;19.79;78.41;99533.88;5047113;28;20105;-81
2022/08/18 02:51:50;;;;;;;55.15;37.97;;;;;;;19.70;78.52;99543.03;5048646;28;20033;-81
2022/08/18 02:54:16;;;;;;;57.65;36.33;;;;;;;19.75;78.53;99544.00;5048567;28;20036;-80
2022/08/18 02:56:44;;;;;;;54.33;38.13;;;;;;;19.82;78.59;99542.31;5032559;28;20182;-81
2022/08/18 02:59:13;;;;;;;57.15;39.40;;;;;;;19.82;78.71;99541.50;5047120;28;20044;-80
2022/08/18 03:01:41;;;;;;;55.47;37.97;;;;;;;19.57;79.59;99541.28;5048716;28;20033;-89
2022/08/18 03:04:09;;;;;;;58.03;38.75;;;;;;;19.74;78.79;99545.13;5049457;28;20032;-88
2022/08/18 03:06:36;;;;;;;65.80;41.80;;;;;;;19.85;78.79;99543.63;5035687;28;20045;-84
2022/08/18 03:09:04;;;;;;;67.13;44.35;;;;;;;19.85;79.69;99534.50;5050839;28;20045;-84
2022/08/18 03:11:30;;;;;;;68.80;41.45;;;;;;;19.95;78.92;99534.91;5053408;28;20033;-88
2022/08/18 03:13:56;;;;;;;64.40;44.45;;;;;;;19.93;79.63;99528.91;5054092;28;20063;-88
2022/08/18 03:16:23;;;;;;;56.72;37.65;;;;;;;19.95;79.31;99539.66;5035944;28;20029;-89
2022/08/18 03:18:50;;;;;;;51.20;34.90;;;;;;;19.66;80.98;99539.31;5051571;28;21085;-88
2022/08/18 03:21:20;;;;;;;56.50;37.95;;;;;;;19.65;81.16;99548.72;5053263;28;20040;-89
2022/08/18 03:23:46;;;;;;;59.50;36.72;;;;;;;19.80;80.59;99543.78;5053268;28;20076;-88
2022/08/18 03:26:13;;;;;;;59.75;38.45;;;;;;;19.95;80.26;99545.97;5035910;28;20072;-88
2022/08/18 03:28:45;;;;;;;56.45;35.75;;;;;;;19.90;80.63;99548.13;5033873;28;20033;-84
2022/08/18 03:31:13;;;;;;;54.03;35.47;;;;;;;19.68;80.97;99541.72;5052517;28;20459;-83
2022/08/18 03:33:40;;;;;;;55.78;36.35;;;;;;;19.78;81.05;99537.78;5052526;28;20240;-85
2022/08/18 03:36:12;;;;;;;62.60;37.45;;;;;;;20.03;79.83;99529.69;5052673;28;20045;-84
2022/08/18 03:38:39;;;;;;;54.45;35.60;;;;;;;19.80;80.65;99538.25;5052796;28;20107;-85
2022/08/18 03:41:12;;;;;;;54.40;35.30;;;;;;;19.85;80.26;99529.78;5053076;28;20044;-84
2022/08/18 03:43:37;;;;;;;60.25;36.58;;;;;;;19.67;81.26;99527.09;5051966;28;20044;-82
2022/08/18 03:46:08;;;;;;;56.65;34.83;;;;;;;19.78;80.78;99535.00;5051193;28;20045;-81
2022/08/18 03:48:34;;;;;;;55.80;37.88;;;;;;;19.80;80.89;99532.72;5052081;28;20505;-83
2022/08/18 03:51:06;;;;;;;55.83;37.67;;;;;;;19.96;79.88;99535.72;5051976;28;20033;-84
2022/08/18 03:53:32;;;;;;;61.22;36.65;;;;;;;19.63;81.42;99534.44;5034828;28;20381;-84
2022/08/18 03:55:58;;;;;;;58.55;37.65;;;;;;;19.91;80.15;99536.72;5052900;28;20041;-84
2022/08/18 03:58:23;;;;;;;53.75;37.35;;;;;;;19.75;81.00;99547.53;5052126;28;20033;-84
2022/08/18 04:00:48;;;;;;;46.60;31.20;;;;;;;19.69;80.92;99533.09;5033737;28;20068;-84
2022/08/18 04:03:14;;;;;;;56.85;35.65;;;;;;;19.91;80.31;99533.97;5052680;28;20044;-89
2022/08/18 04:05:40;;;;;;;52.17;36.85;;;;;;;19.94;80.44;99535.25;5053046;28;20037;-90
2022/08/18 04:08:05;;;;;;;50.70;32.92;;;;;;;19.84;80.61;99536.44;5052497;28;20037;-84
2022/08/18 04:10:31;;;;;;;49.67;32.58;;;;;;;19.74;80.92;99534.88;5051152;28;20044;-84
2022/08/18 04:12:57;;;;;;;52.90;36.10;;;;;;;19.78;81.13;99535.00;5052248;28;20424;-85
2022/08/18 04:15:22;;;;;;;53.28;33.85;;;;;;;19.56;82.30;99545.19;5049114;28;20046;-85
2022/08/18 04:17:48;;;;;;;65.75;40.05;;;;;;;19.86;80.94;99550.75;5045589;28;20502;-89
2022/08/18 04:20:13;;;;;;;62.17;38.72;;;;;;;19.59;81.48;99550.06;5053912;28;20132;-89
2022/08/18 04:22:39;;;;;;;63.15;39.05;;;;;;;19.60;82.31;99554.47;5052379;28;20130;-83
2022/08/18 04:25:08;;;;;;;60.35;38.70;;;;;;;19.60;81.96;99562.75;5051203;28;20052;-83
2022/08/18 04:27:34;;;;;;;67.47;42.97;;;;;;;19.57;82.64;99560.63;5051450;28;20052;-81
2022/08/18 04:29:59;;;;;;;73.47;45.08;;;;;;;19.87;81.31;99555.13;5032060;28;20408;-81
2022/08/18 04:32:25;;;;;;;81.40;47.50;;;;;;;19.91;81.25;99550.56;5051285;28;20033;-90
2022/08/18 04:34:51;;;;;;;65.57;41.55;;;;;;;19.92;81.14;99554.13;5052041;28;20356;-90
2022/08/18 04:37:16;;;;;;;58.35;36.50;;;;;;;19.42;82.99;99556.47;5051618;28;20048;-81
2022/08/18 04:39:42;;;;;;;70.75;41.53;;;;;;;19.23;84.20;99558.47;5031451;28;20040;-81
2022/08/18 04:42:08;;;;;;;68.93;41.25;;;;;;;19.35;83.50;99562.50;5051082;28;20578;-84
2022/08/18 04:44:36;;;;;;;74.40;46.15;;;;;;;19.09;85.13;99557.81;5033795;28;20075;-84
2022/08/18 04:47:03;;;;;;;81.45;46.80;;;;;;;19.52;83.49;99552.53;5051538;28;20045;-89
2022/08/18 04:49:30;;;;;;;81.97;48.45;;;;;;;19.45;83.28;99567.69;5050514;28;20041;-90
2022/08/18 04:54:41;;;;;;;87.35;49.42;;;;;;;19.12;85.08;99576.50;5050616;28;20125;-80
2022/08/18 04:57:16;;;;;;;87.07;48.17;;;;;;;19.45;83.38;99587.03;5050093;28;20484;-80
2022/08/18 04:59:46;;;;;;;85.03;47.50;;;;;;;19.18;84.71;99586.25;5049207;28;20131;-80
2022/08/18 05:02:13;;;;;;;84.05;45.33;;;;;;;19.35;84.04;99588.19;5050474;28;20076;-84
2022/08/18 05:04:40;;;;;;;84.68;45.80;;;;;;;19.39;83.99;99595.81;5033042;28;20132;-84
2022/08/18 05:07:09;;;;;;;86.72;47.40;;;;;;;19.43;83.73;99591.25;5050783;28;20039;-82
2022/08/18 05:09:35;;;;;;;84.25;43.40;;;;;;;19.25;84.41;99596.81;5049110;28;20043;-83
2022/08/18 05:12:01;;;;;;;78.05;45.38;;;;;;;19.29;83.96;99597.78;5050656;28;20036;-80
2022/08/18 05:14:27;;;;;;;75.35;44.10;;;;;;;19.39;84.13;99593.03;5049692;28;20037;-77
2022/08/18 05:16:52;;;;;;;82.18;46.47;;;;;;;19.54;83.34;99594.47;5034880;28;20091;-81
2022/08/18 05:19:21;;;;;;;92.00;50.15;;;;;;;19.45;83.39;99589.78;5048317;28;20078;-81
2022/08/18 05:21:50;;;;;;;98.50;50.05;;;;;;;19.67;82.70;99590.69;5049875;28;20044;-83
2022/08/18 05:24:16;;;;;;;106.43;52.75;;;;;;;19.84;81.83;99589.00;5049863;28;20048;-82
2022/08/18 05:26:44;;;;;;;90.50;45.63;;;;;;;19.73;82.18;99593.28;5050902;28;20355;-81
2022/08/18 05:29:10;;;;;;;103.53;52.05;;;;;;;19.59;83.25;99594.28;5048234;28;20109;-80
2022/08/18 05:31:35;;;;;;;99.53;47.90;;;;;;;19.45;83.56;99600.03;5049727;28;20132;-78
2022/08/18 05:34:02;;;;;;;97.32;49.65;;;;;;;19.48;83.76;99594.66;5048970;28;20562;-77
2022/08/18 05:36:49;;;;;;;110.22;57.10;;;;;;;19.75;82.29;99594.56;5048996;28;20455;-82
2022/08/18 05:39:18;;;;;;;103.85;50.67;;;;;;;19.84;82.03;99594.53;5049627;28;20048;-82
2022/08/18 05:41:49;;;;;;;101.25;48.88;;;;;;;19.82;81.96;99610.66;5050188;28;20147;-80
2022/08/18 05:44:23;;;;;;;91.80;50.25;;;;;;;19.61;82.73;99608.59;5032066;28;20376;-80
2022/08/18 05:46:59;;;;;;;85.25;45.75;;;;;;;19.75;82.55;99608.38;5049580;28;20048;-77
2022/08/18 05:49:26;;;;;;;98.55;48.03;;;;;;;19.88;82.02;99606.56;5047727;28;20086;-77
2022/08/18 05:51:55;;;;;;;83.18;42.15;;;;;;;19.81;82.15;99612.59;5049490;28;20423;-81
2022/08/18 05:57:10;;;;;;;83.00;39.75;;;;;;;19.64;82.43;99619.00;5030287;28;20075;-87
2022/08/18 05:59:39;;;;;;;83.13;40.78;;;;;;;19.82;81.84;99613.41;5041545;28;20048;-87
2022/08/18 06:02:14;;;;;;;77.20;39.08;;;;;;;19.90;81.31;99609.81;5032784;28;20072;-82
2022/08/18 06:04:46;;;;;;;78.60;38.33;;;;;;;19.92;81.13;99617.75;5049820;28;20534;-82
2022/08/18 06:07:16;;;;;;;73.13;36.85;;;;;;;19.90;81.24;99618.09;5050607;28;20044;-86
2022/08/18 06:09:48;;;;;;;76.25;40.08;;;;;;;19.96;80.55;99613.19;5049620;28;20120;-86
2022/08/18 06:12:23;;;;;;;71.70;38.38;;;;;;;19.93;80.75;99620.19;5050336;28;20059;-82
2022/08/18 06:14:49;;;;;;;74.75;42.38;;;;;;;20.06;80.18;99623.06;5050390;28;20037;-82
2022/08/18 06:17:40;;;;;;;82.25;40.20;;;;;;;20.02;80.30;99624.88;5035329;28;20396;-80
2022/08/18 06:20:22;;;;;;;82.30;40.40;;;;;;;20.04;80.35;99625.34;5052301;28;20095;-80
2022/08/18 06:23:03;;;;;;;74.53;39.05;;;;;;;19.93;80.42;99625.72;5050730;28;20087;-87
2022/08/18 06:26:01;;;;;;;54.83;31.80;;;;;;;19.70;82.11;99645.34;5032665;28;20441;-88
2022/08/18 06:28:52;;;;;;;64.32;35.92;;;;;;;19.86;80.92;99636.50;5049655;28;20492;-82
2022/08/18 06:31:39;;;;;;;66.55;32.53;;;;;;;19.93;81.15;99639.56;5001970;28;20488;-83
2022/08/18 06:34:28;;;;;;;73.35;40.80;;;;;;;19.98;80.53;99637.75;5042215;28;20041;-82
2022/08/18 06:36:53;;;;;;;77.72;39.22;;;;;;;20.01;80.59;99637.91;5049931;28;20393;-87
2022/08/18 06:39:28;;;;;;;76.60;39.20;;;;;;;20.06;80.35;99636.91;5049414;28;20094;-86
2022/08/18 06:41:53;;;;;;;78.45;41.08;;;;;;;20.02;81.24;99645.06;5054640;28;20047;-80
2022/08/18 06:44:32;;;;;;;61.33;35.08;;;;;;;20.05;80.40;99649.13;5052760;28;20044;-79
2022/08/18 06:47:18;;;;;;;64.72;38.08;;;;;;;20.10;80.34;99648.97;5049666;28;20048;-79
2022/08/18 06:50:01;;;;;;;68.57;36.67;;;;;;;20.12;80.18;99648.63;5044602;28;20057;-79
2022/08/18 06:52:33;;;;;;;68.35;35.78;;;;;;;20.13;79.79;99648.31;5052678;28;20057;-79
2022/08/18 06:55:02;;;;;;;71.10;37.80;;;;;;;20.00;80.60;99652.06;5052529;28;20037;-79
2022/08/18 06:57:35;;;;;;;68.10;35.50;;;;;;;20.14;80.23;99652.69;5051870;28;20079;-83
2022/08/18 07:00:08;;;;;;;67.47;34.70;;;;;;;20.22;79.75;99655.75;5052754;28;20098;-83
2022/08/18 07:02:40;;;;;;;64.47;35.78;;;;;;;20.03;80.13;99660.53;5053656;28;20046;-82
2022/08/18 07:05:20;;;;;;;69.25;36.38;;;;;;;20.18;79.75;99667.47;5053184;28;20570;-81
2022/08/18 07:08:09;;;;;;;66.30;35.92;;;;;;;19.90;80.70;99667.88;5035984;28;20045;-88
2022/08/18 07:10:43;;;;;;;58.78;33.22;;;;;;;20.08;80.50;99659.53;5052628;28;20119;-87
2022/08/18 07:13:11;;;;;;;;;;;;;;;20.22;79.75;99658.53;5054348;28;20033;-83
2022/08/18 07:15:37;;;;;;;70.43;35.90;;;;;;;20.21;79.87;99660.47;5048484;28;19952;-82
2022/08/18 07:18:07;;;;;;;59.20;31.50;;;;;;;20.25;79.90;99657.84;5041072;28;20080;-77
2022/08/18 07:20:52;;;;;;;65.43;36.35;;;;;;;20.27;79.92;99650.84;5050620;28;20103;-77
2022/08/18 07:23:37;;;;;;;59.67;34.92;;;;;;;20.38;79.15;99651.25;5051870;28;20045;-79
2022/08/18 07:26:09;;;;;;;61.20;31.70;;;;;;;20.38;79.39;99650.47;5051550;28;20052;-79
2022/08/18 07:28:43;;;;;;;60.50;32.10;;;;;;;20.18;80.14;99648.09;5051984;28;20033;-83
2022/08/18 07:31:18;;;;;;;61.72;35.22;;;;;;;20.48;79.14;99660.34;5033230;28;20044;-83
2022/08/18 07:33:53;;;;;;;55.50;33.85;;;;;;;20.30;79.15;99650.16;5033255;28;20369;-83
2022/08/18 07:36:21;;;;;;;58.20;33.72;;;;;;;20.22;79.98;99651.00;5033198;28;20041;-81
2022/08/18 07:39:13;;;;;;;65.35;37.17;;;;;;;20.02;81.84;99647.00;5037036;28;20045;-82
2022/08/18 07:41:47;;;;;;;68.05;37.67;;;;;;;20.19;81.68;99648.94;5073384;28;20072;-79
2022/08/18 07:44:24;;;;;;;64.38;35.20;;;;;;;20.27;81.28;99653.59;5064864;28;20490;-78
2022/08/18 07:46:59;;;;;;;74.22;42.28;;;;;;;20.54;80.78;99653.47;5053478;28;20128;-83
2022/08/18 07:49:31;;;;;;;70.78;38.85;;;;;;;20.50;80.97;99649.75;5057836;28;20029;-83
2022/08/18 07:52:07;;;;;;;66.50;36.53;;;;;;;20.50;80.85;99652.50;5044352;28;20029;-87
2022/08/18 07:54:53;;;;;;;63.47;35.78;;;;;;;20.44;81.09;99656.63;5052505;28;20112;-86
2022/08/18 07:57:32;;;;;;;68.97;38.65;;;;;;;20.39;81.43;99644.59;5054589;28;20041;-80
2022/08/18 08:00:13;;;;;;;67.03;36.63;;;;;;;20.44;81.25;99651.06;5052263;28;20523;-81
2022/08/18 08:02:47;;;;;;;68.93;39.08;;;;;;;20.61;80.61;99645.41;5034053;28;20087;-78
2022/08/18 08:05:18;;;;;;;60.95;36.20;;;;;;;20.59;80.72;99650.47;5050283;28;20419;-78
2022/08/18 08:07:54;;;;;;;73.38;38.78;;;;;;;20.72;80.09;99639.50;5033728;28;20029;-78
2022/08/18 08:10:48;;;;;;;77.93;42.35;;;;;;;20.71;80.40;99635.09;5047712;28;20456;-77
2022/08/18 08:13:38;;;;;;;73.05;41.13;;;;;;;20.79;80.40;99642.50;5022929;28;20045;-87
2022/08/18 08:16:27;;;;;;;80.40;42.08;;;;;;;20.65;79.80;99637.25;5026010;28;20052;-87
2022/08/18 08:19:07;;;;;;;90.88;43.47;;;;;;;20.69;80.44;99631.84;5046395;28;20045;-82
2022/08/18 08:21:41;;;;;;;78.50;40.50;;;;;;;20.76;80.11;99644.03;5052933;28;20041;-80
2022/08/18 08:24:17;;;;;;;;;;;;;;;20.46;80.65;99657.09;5061940;28;20040;-81
2022/08/18 08:26:59;;;;;;;71.97;38.50;;;;;;;20.69;80.26;99673.38;5071562;28;20177;-77
2022/08/18 08:29:57;;;;;;;71.47;36.30;;;;;;;20.77;79.90;99669.75;5059362;28;20055;-78
2022/08/18 08:32:29;;;;;;;76.75;39.15;;;;;;;20.95;79.59;99672.41;5051086;28;20040;-82
2022/08/18 08:34:58;;;;;;;67.93;39.08;;;;;;;20.97;79.38;99673.69;5043958;28;20037;-82
2022/08/18 08:37:31;;;;;;;73.13;39.22;;;;;;;20.97;78.95;99675.69;5051840;28;20055;-82
2022/08/18 08:39:59;;;;;;;;;;;;;;;21.17;78.16;99667.69;5051557;28;20044;-82
2022/08/18 08:42:52;;;;;;;71.63;39.78;;;;;;;21.25;77.87;99664.03;5051556;28;20378;-82
2022/08/18 08:45:25;;;;;;;72.70;37.33;;;;;;;21.22;78.05;99661.94;5051488;28;20044;-82
2022/08/18 08:48:00;;;;;;;66.90;40.35;;;;;;;21.25;78.09;99666.81;5050538;28;20044;-78
2022/08/18 08:50:29;;;;;;;67.13;34.58;;;;;;;21.51;77.19;99665.75;5048815;28;20044;-78
2022/08/18 08:53:21;;;;;;;59.22;33.03;;;;;;;21.19;78.11;99676.47;5033619;28;20045;-86
2022/08/18 08:55:51;;;;;;;63.33;36.22;;;;;;;21.37;76.92;99681.84;5051980;28;20037;-83
2022/08/18 08:58:19;;;;;;;72.00;37.47;;;;;;;21.67;76.28;99681.72;5066150;28;20047;-84
2022/08/18 09:00:46;;;;;;;54.63;33.15;;;;;;;21.48;75.71;99679.47;5061446;28;20045;-84
2022/08/18 09:03:23;;;;;;;51.10;30.92;;;;;;;21.58;75.73;99679.84;5049307;28;20541;-80
2022/08/18 09:06:02;;;;;;;55.10;33.63;;;;;;;21.38;76.45;99672.41;5052435;28;20094;-78
2022/08/18 09:08:37;;;;;;;51.40;30.60;;;;;;;21.52;75.94;99672.88;5061594;28;20044;-78
2022/08/18 09:11:35;;;;;;;48.65;30.98;;;;;;;21.66;75.48;99669.00;5053761;28;20446;-79
2022/08/18 09:14:11;;;;;;;50.22;32.63;;;;;;;21.95;73.43;99678.34;4997234;28;20048;-78
2022/08/18 09:17:10;;;;;;;45.90;28.25;;;;;;;21.69;74.25;99673.88;5051422;28;20055;-80
2022/08/18 09:20:15;;;;;;;44.35;29.58;;;;;;;21.65;74.93;99678.47;5033573;28;20057;-79
2022/08/18 09:22:56;;;;;;;49.75;30.45;;;;;;;21.48;75.06;99683.03;5031163;28;20041;-79
2022/08/18 09:25:38;;;;;;;54.17;32.50;;;;;;;21.85;74.43;99674.03;5030485;28;20064;-79
2022/08/18 09:28:38;;;;;;;46.78;31.88;;;;;;;21.49;74.73;99668.03;5052981;28;20072;-82
2022/08/18 09:31:04;;;;;;;53.90;32.22;;;;;;;22.11;73.06;99669.34;5040505;28;20032;-82
2022/08/18 09:33:44;;;;;;;57.75;34.28;;;;;;;22.27;71.89;99673.03;5060183;28;20039;-83
2022/08/18 09:36:34;;;;;;;57.65;33.05;;;;;;;22.11;72.64;99670.13;5049073;28;20037;-85
2022/08/18 09:42:36;;;;;;;54.30;34.35;;;;;;;22.41;71.10;99671.06;5051348;28;20113;-85
2022/08/18 09:45:28;;;;;;;52.30;31.98;;;;;;;22.54;70.57;99666.34;5033358;28;20312;-85
2022/08/18 09:47:54;;;;;;;54.40;30.05;;;;;;;22.39;71.49;99665.88;5044491;28;20040;-80
2022/08/18 09:50:26;;;;;;;53.97;30.27;;;;;;;22.24;71.80;99670.16;5048653;28;20049;-80
2022/08/18 09:52:52;;;;;;;53.13;31.90;;;;;;;22.35;71.03;99673.28;5041608;28;20044;-80
2022/08/18 09:55:17;;;;;;;46.50;28.27;;;;;;;22.11;71.34;99672.91;5049407;28;20098;-79
2022/08/18 09:57:45;;;;;;;44.67;29.57;;;;;;;22.42;70.40;99681.81;5050602;28;20044;-87
2022/08/18 10:00:11;;;;;;;46.78;28.40;;;;;;;22.58;69.58;99681.94;5050510;28;20033;-86
2022/08/18 10:02:40;;;;;;;49.67;30.33;;;;;;;22.48;69.92;99694.31;5050622;28;20041;-82
2022/08/18 10:05:14;;;;;;;50.08;28.83;;;;;;;22.40;69.81;99686.91;5050196;28;20052;-82
2022/08/18 10:07:53;;;;;;;47.40;28.95;;;;;;;22.36;70.51;99686.00;5050153;28;20040;-80
2022/08/18 10:10:48;;;;;;;44.17;27.55;;;;;;;22.65;68.89;99678.59;5047441;28;20041;-80
2022/08/18 10:13:32;;;;;;;45.92;28.48;;;;;;;22.29;70.27;99678.25;5050380;28;20044;-85
2022/08/18 10:16:20;;;;;;;42.80;28.02;;;;;;;22.34;69.48;99688.31;5042682;28;20041;-85
2022/08/18 10:19:10;;;;;;;47.17;25.55;;;;;;;22.65;69.17;99692.50;5026647;28;20040;-84
2022/08/18 10:21:54;;;;;;;42.67;26.35;;;;;;;22.60;68.34;99692.69;5052317;28;20051;-84
2022/08/18 10:24:21;;;;;;;51.42;30.55;;;;;;;22.64;68.10;99685.28;5056419;28;20415;-83
2022/08/18 10:26:49;;;;;;;39.55;26.83;;;;;;;22.66;68.08;99683.00;5050099;28;20040;-82
2022/08/18 10:29:23;;;;;;;41.15;27.05;;;;;;;21.89;70.03;99682.47;5048632;28;20516;-81
2022/08/18 10:31:54;;;;;;;48.53;29.15;;;;;;;22.27;68.96;99670.25;5049465;28;20033;-78
2022/08/18 10:34:47;;;;;;;48.00;30.25;;;;;;;21.99;69.90;99667.34;5047873;28;20045;-77
2022/08/18 10:37:26;;;;;;;45.67;29.55;;;;;;;22.02;69.97;99669.44;5049657;28;20040;-83
2022/08/18 10:40:00;;;;;;;47.47;29.52;;;;;;;22.60;68.15;99667.69;5022603;28;20428;-84
2022/08/18 10:42:34;;;;;;;45.90;27.58;;;;;;;22.18;69.36;99675.13;5030197;28;20037;-77
2022/08/18 10:45:09;;;;;;;49.67;31.27;;;;;;;22.41;68.79;99666.34;5031105;28;20046;-77
2022/08/18 10:47:35;;;;;;;46.75;31.55;;;;;;;22.51;67.92;99670.59;5035748;28;20065;-81
2022/08/18 10:50:08;;;;;;;46.55;31.00;;;;;;;22.81;67.37;99662.03;5047555;28;20477;-82
2022/08/18 10:52:57;;;;;;;45.45;31.30;;;;;;;22.45;67.65;99661.72;5048884;28;20117;-77
2022/08/18 10:55:39;;;;;;;46.90;31.35;;;;;;;22.91;66.54;99659.91;5030767;28;20094;-77
2022/08/18 10:58:29;;;;;;;55.22;32.53;;;;;;;23.17;65.90;99661.44;5049047;28;20148;-82
2022/08/18 11:01:28;;;;;;;52.78;33.00;;;;;;;23.28;66.19;99661.75;5028500;28;20071;-82
2022/08/18 11:04:25;;;;;;;46.75;31.50;;;;;;;23.50;64.43;99648.47;5055175;28;20048;-82
2022/08/18 11:07:03;;;;;;;51.22;32.38;;;;;;;22.75;65.98;99657.88;5037900;28;20044;-87
2022/08/18 11:09:30;;;;;;;48.03;31.40;;;;;;;23.44;64.32;99654.28;5054406;28;20037;-87
2022/08/18 11:11:58;;;;;;;43.97;30.83;;;;;;;23.70;63.53;99654.94;5063390;28;20062;-87
2022/08/18 11:14:58;;;;;;;50.50;32.83;;;;;;;23.74;62.93;99655.84;5050413;28;20037;-87
2022/08/18 11:17:40;;;;;;;46.13;29.45;;;;;;;23.33;64.01;99645.59;5049666;28;20132;-85
2022/08/18 11:20:08;;;;;;;42.90;29.63;;;;;;;23.33;63.61;99640.06;5029743;28;20041;-86
2022/08/18 11:22:35;;;;;;;43.42;31.15;;;;;;;22.95;64.88;99633.84;5032395;28;20085;-87
2022/08/18 11:25:04;;;;;;;47.88;31.23;;;;;;;23.13;64.55;99633.53;5049960;28;20049;-87
2022/08/18 11:27:36;;;;;;;48.42;31.25;;;;;;;23.47;63.09;99638.06;5052793;28;20095;-84
2022/08/18 11:30:04;;;;;;;55.47;35.13;;;;;;;23.60;63.17;99639.59;5049210;28;20048;-83
2022/08/18 11:32:31;;;;;;;50.38;31.23;;;;;;;23.82;61.87;99640.13;5073441;28;20463;-82
2022/08/18 11:34:56;;;;;;;52.92;32.80;;;;;;;23.83;62.09;99644.56;5072833;28;20616;-82
2022/08/18 11:37:32;;;;;;;46.83;31.17;;;;;;;23.71;62.79;99639.06;5072213;28;20032;-78
2022/08/18 11:40:00;;;;;;;48.60;30.92;;;;;;;23.85;62.55;99645.00;5046334;28;20063;-77
2022/08/18 11:42:28;;;;;;;51.28;33.05;;;;;;;23.86;62.24;99648.59;5042965;28;20046;-84
2022/08/18 11:45:15;;;;;;;46.80;29.58;;;;;;;23.99;62.37;99633.41;5039767;28;20476;-84
2022/08/18 11:48:03;;;;;;;45.22;31.27;;;;;;;23.16;63.93;99632.03;5038317;28;20041;-84
2022/08/18 11:50:30;;;;;;;41.83;29.90;;;;;;;23.27;63.84;99633.13;5051436;28;20469;-84
2022/08/18 11:53:10;;;;;;;41.15;28.02;;;;;;;23.06;65.79;99623.03;5052197;28;20076;-78
2022/08/18 11:55:37;;;;;;;44.75;30.23;;;;;;;23.53;63.82;99628.28;5051497;28;20041;-77